createdAt,value
2022-11-05T00:02:32.538Z,99168.25
2022-11-05T00:05:17.594Z,99165.25
2022-11-05T00:08:09.062Z,99167.22
2022-11-05T00:10:38.508Z,99165.31
2022-11-05T00:13:25.815Z,99180.63
2022-11-05T00:16:11.146Z,99172.94
2022-11-05T00:18:37.665Z,99182.19
2022-11-05T00:21:04.543Z,99182.06
2022-11-05T00:23:49.632Z,99190.94
2022-11-05T00:26:16.086Z,99184.59
2022-11-05T00:28:43.767Z,99188.06
2022-11-05T00:31:14.193Z,99187.34
2022-11-05T00:33:42.363Z,99194.25
2022-11-05T00:36:10.929Z,99195.69
2022-11-05T00:38:37.590Z,99203.59
2022-11-05T00:41:04.022Z,99206.25
2022-11-05T00:43:49.202Z,99206.25
2022-11-05T00:46:15.714Z,99210.84
2022-11-05T00:49:00.461Z,99208.19
2022-11-05T00:51:26.809Z,99218.03
2022-11-05T00:53:53.223Z,99214.28
2022-11-05T00:56:19.596Z,99215.81
2022-11-05T00:58:46.152Z,99217.41
2022-11-05T01:01:12.771Z,99227.97
2022-11-05T01:03:39.969Z,99233.88
2022-11-05T01:06:12.936Z,99243.00
2022-11-05T01:08:40.952Z,99243.84
2022-11-05T01:11:10.753Z,99240.44
2022-11-05T01:13:38.600Z,99241.56
2022-11-05T01:16:08.059Z,99251.41
2022-11-05T01:18:36.232Z,99245.34
2022-11-05T01:21:13.430Z,99241.00
2022-11-05T01:27:20.603Z,99239.03
2022-11-05T01:29:46.967Z,99248.72
2022-11-05T01:32:13.358Z,99244.63
2022-11-05T01:34:39.769Z,99241.38
2022-11-05T01:37:06.213Z,99254.34
2022-11-05T01:39:32.548Z,99257.41
2022-11-05T01:41:58.947Z,99256.81
2022-11-05T01:45:02.582Z,99268.72
2022-11-05T01:47:39.209Z,99260.69
2022-11-05T01:50:23.877Z,99265.91
2022-11-05T01:52:54.206Z,99268.47
2022-11-05T01:55:26.285Z,99264.81
2022-11-05T01:57:56.498Z,99261.78
2022-11-05T02:00:22.886Z,99267.84
2022-11-05T02:02:49.577Z,99271.56
2022-11-05T02:05:16.306Z,99266.47
2022-11-05T02:07:45.410Z,99282.00
2022-11-05T02:10:14.670Z,99274.94
2022-11-05T02:12:45.545Z,99287.66
2022-11-05T02:15:14.175Z,99289.47
2022-11-05T02:17:46.412Z,99292.38
2022-11-05T02:20:23.549Z,99288.78
2022-11-05T02:22:52.903Z,99290.59
2022-11-05T02:25:41.281Z,99290.47
2022-11-05T02:28:13.278Z,99283.88
2022-11-05T02:31:10.665Z,99287.41
2022-11-05T02:34:24.713Z,99294.56
2022-11-05T02:37:16.136Z,99294.56
2022-11-05T02:39:58.926Z,99297.25
2022-11-05T02:43:02.231Z,99303.97
2022-11-05T02:45:51.238Z,99313.16
2022-11-05T02:48:36.193Z,99308.91
2022-11-05T02:51:16.162Z,99312.69
2022-11-05T02:53:53.485Z,99309.03
2022-11-05T02:56:32.884Z,99309.19
2022-11-05T02:58:59.498Z,99308.84
2022-11-05T03:01:26.003Z,99308.84
2022-11-05T03:03:57.219Z,99303.38
2022-11-05T03:06:50.691Z,99308.31
2022-11-05T03:09:16.959Z,99317.59
2022-11-05T03:11:49.474Z,99314.81
2022-11-05T03:14:43.644Z,99307.78
2022-11-05T03:17:29.277Z,99306.81
2022-11-05T03:20:02.826Z,99313.97
2022-11-05T03:22:36.795Z,99317.72
2022-11-05T03:25:08.192Z,99314.81
2022-11-05T03:27:39.849Z,99310.19
2022-11-05T03:30:09.057Z,99312.75
2022-11-05T03:32:41.139Z,99314.09
2022-11-05T03:35:41.710Z,99314.69
2022-11-05T03:38:15.469Z,99323.72
2022-11-05T03:40:45.040Z,99313.84
2022-11-05T03:43:13.826Z,99321.88
2022-11-05T03:45:47.439Z,99316.41
2022-11-05T03:48:16.011Z,99322.00
2022-11-05T03:50:50.148Z,99326.22
2022-11-05T03:53:22.413Z,99327.34
2022-11-05T03:56:01.807Z,99324.53
2022-11-05T03:58:29.568Z,99325.25
2022-11-05T04:00:56.132Z,99326.63
2022-11-05T04:03:22.473Z,99337.44
2022-11-05T04:06:09.461Z,99336.97
2022-11-05T04:08:54.588Z,99339.16
2022-11-05T04:11:40.037Z,99339.16
2022-11-05T04:14:06.405Z,99340.66
2022-11-05T04:16:51.560Z,99349.38
2022-11-05T04:19:37.889Z,99355.09
2022-11-05T04:22:22.651Z,99362.28
2022-11-05T04:24:49.044Z,99370.03
2022-11-05T04:27:15.451Z,99360.56
2022-11-05T04:30:00.367Z,99364.94
2022-11-05T04:32:26.766Z,99366.03
2022-11-05T04:34:53.086Z,99369.16
2022-11-05T04:37:19.445Z,99372.97
2022-11-05T04:39:45.848Z,99375.63
2022-11-05T04:42:12.201Z,99375.75
2022-11-05T04:44:38.541Z,99376.72
2022-11-05T04:47:04.949Z,99383.03
2022-11-05T04:49:31.287Z,99378.28
2022-11-05T04:51:57.728Z,99380.72
2022-11-05T04:54:24.078Z,99382.44
2022-11-05T04:56:50.487Z,99378.91
2022-11-05T04:59:16.821Z,99381.72
2022-11-05T05:01:43.245Z,99381.97
2022-11-05T05:04:09.635Z,99383.78
2022-11-05T05:06:36.375Z,99386.59
2022-11-05T05:09:02.759Z,99390.47
2022-11-05T05:11:29.146Z,99381.00
2022-11-05T05:13:55.517Z,99381.50
2022-11-05T05:16:24.370Z,99384.16
2022-11-05T05:18:51.192Z,99391.22
2022-11-05T05:21:38.218Z,99391.56
2022-11-05T05:24:21.074Z,99395.47
2022-11-05T05:26:49.104Z,99397.75
2022-11-05T05:29:16.146Z,99405.53
2022-11-05T05:31:43.323Z,99408.78
2022-11-05T05:34:14.393Z,99413.66
2022-11-05T05:36:41.066Z,99404.06
2022-11-05T05:39:10.651Z,99406.88
2022-11-05T05:41:37.034Z,99403.09
2022-11-05T05:44:05.301Z,99410.63
2022-11-05T05:46:31.676Z,99417.41
2022-11-05T05:48:58.091Z,99417.88
2022-11-05T05:51:24.424Z,99416.91
2022-11-05T05:53:50.923Z,99406.22
2022-11-05T05:56:20.357Z,99410.84
2022-11-05T05:58:47.153Z,99414.47
2022-11-05T06:01:19.261Z,99416.19
2022-11-05T06:03:47.792Z,99415.56
2022-11-05T06:06:15.324Z,99424.53
2022-11-05T06:08:42.301Z,99423.47
2022-11-05T06:11:08.835Z,99423.06
2022-11-05T06:13:35.946Z,99429.47
2022-11-05T06:16:07.800Z,99431.25
2022-11-05T06:18:35.185Z,99429.09
2022-11-05T06:21:09.815Z,99435.09
2022-11-05T06:23:38.192Z,99437.41
2022-11-05T06:26:09.414Z,99435.53
2022-11-05T06:28:36.140Z,99443.88
2022-11-05T06:31:03.080Z,99449.88
2022-11-05T06:33:29.449Z,99451.19
2022-11-05T06:35:59.008Z,99455.91
2022-11-05T06:38:25.374Z,99457.59
2022-11-05T06:40:51.782Z,99456.13
2022-11-05T06:43:18.299Z,99458.91
2022-11-05T06:45:44.637Z,99466.00
2022-11-05T06:48:10.961Z,99465.72
2022-11-05T06:50:37.322Z,99466.56
2022-11-05T06:53:04.600Z,99476.25
2022-11-05T06:55:32.044Z,99478.81
2022-11-05T06:57:58.409Z,99481.28
2022-11-05T07:00:24.840Z,99485.44
2022-11-05T07:02:51.234Z,99480.84
2022-11-05T07:05:17.638Z,99483.28
2022-11-05T07:07:45.076Z,99494.25
2022-11-05T07:10:16.802Z,99497.63
2022-11-05T07:12:43.573Z,99501.03
2022-11-05T07:15:11.922Z,99495.47
2022-11-05T07:17:39.284Z,99500.19
2022-11-05T07:20:07.494Z,99510.13
2022-11-05T07:22:34.905Z,99505.84
2022-11-05T07:25:01.481Z,99514.47
2022-11-05T07:27:27.878Z,99515.56
2022-11-05T07:29:54.248Z,99521.00
2022-11-05T07:32:20.673Z,99519.06
2022-11-05T07:34:47.077Z,99525.03
2022-11-05T07:37:16.664Z,99528.94
2022-11-05T07:39:43.087Z,99527.53
2022-11-05T07:42:13.455Z,99535.91
2022-11-05T07:44:39.832Z,99532.47
2022-11-05T07:47:06.175Z,99536.78
2022-11-05T07:49:32.568Z,99535.00
2022-11-05T07:51:58.959Z,99540.47
2022-11-05T07:54:26.545Z,99545.88
2022-11-05T07:56:53.008Z,99550.38
2022-11-05T07:59:19.387Z,99550.44
2022-11-05T08:01:45.938Z,99547.25
2022-11-05T08:04:12.631Z,99562.81
2022-11-05T08:06:39.048Z,99557.38
2022-11-05T08:09:05.586Z,99559.94
2022-11-05T08:11:32.157Z,99569.00
2022-11-05T08:13:58.625Z,99560.28
2022-11-05T08:16:25.085Z,99561.72
2022-11-05T08:18:51.529Z,99564.03
2022-11-05T08:21:17.932Z,99565.41
2022-11-05T08:23:44.454Z,99573.31
2022-11-05T08:26:10.820Z,99567.84
2022-11-05T08:28:37.294Z,99565.44
2022-11-05T08:31:03.754Z,99575.00
2022-11-05T08:33:31.261Z,99564.06
2022-11-05T08:36:02.247Z,99565.13
2022-11-05T08:38:28.819Z,99560.66
2022-11-05T08:40:57.560Z,99563.28
2022-11-05T08:43:24.384Z,99555.88
2022-11-05T08:45:50.791Z,99557.09
2022-11-05T08:48:18.518Z,99549.44
2022-11-05T08:50:46.764Z,99546.53
2022-11-05T08:53:13.523Z,99551.28
2022-11-05T08:55:40.596Z,99551.28
2022-11-05T08:58:12.412Z,99556.97
2022-11-05T09:00:39.891Z,99549.19
2022-11-05T09:03:07.768Z,99554.06
2022-11-05T09:05:37.811Z,99555.06
2022-11-05T09:08:08.534Z,99558.22
2022-11-05T09:10:35.022Z,99560.66
2022-11-05T09:13:01.520Z,99564.53
2022-11-05T09:15:29.557Z,99564.41
2022-11-05T09:17:56.284Z,99562.84
2022-11-05T09:20:23.239Z,99561.63
2022-11-05T09:22:49.725Z,99565.63
2022-11-05T09:25:16.504Z,99563.66
2022-11-05T09:27:43.437Z,99565.06
2022-11-05T09:30:11.648Z,99565.00
2022-11-05T09:32:38.620Z,99557.63
2022-11-05T09:35:05.608Z,99568.25
2022-11-05T09:37:31.987Z,99573.97
2022-11-05T09:39:58.353Z,99578.38
2022-11-05T09:42:32.972Z,99577.75
2022-11-05T09:45:11.240Z,99581.03
2022-11-05T09:48:01.426Z,99580.31
2022-11-05T09:50:36.528Z,99583.22
2022-11-05T09:53:04.239Z,99584.94
2022-11-05T09:55:36.991Z,99586.13
2022-11-05T09:58:15.415Z,99586.41
2022-11-05T10:00:43.180Z,99600.97
2022-11-05T10:03:17.743Z,99594.91
2022-11-05T10:05:45.646Z,99601.09
2022-11-05T10:08:34.533Z,99597.59
2022-11-05T10:11:10.390Z,99601.38
2022-11-05T10:13:44.235Z,99599.78
2022-11-05T10:16:25.527Z,99600.38
2022-11-05T10:19:03.444Z,99609.47
2022-11-05T10:21:59.553Z,99609.44
2022-11-05T10:24:19.701Z,99598.50
2022-11-05T10:26:49.080Z,99598.38
2022-11-05T10:29:32.476Z,99586.31
2022-11-05T10:32:03.116Z,99584.41
2022-11-05T10:34:33.712Z,99584.91
2022-11-05T10:37:00.806Z,99587.91
2022-11-05T10:39:27.855Z,99594.09
2022-11-05T10:42:04.948Z,99594.81
2022-11-05T10:44:45.153Z,99609.81
2022-11-05T10:47:51.075Z,99608.44
2022-11-05T10:50:24.951Z,99598.63
2022-11-05T10:52:51.249Z,99592.22
2022-11-05T10:55:25.713Z,99590.72
2022-11-05T10:57:52.551Z,99594.91
2022-11-05T11:00:24.647Z,99595.91
2022-11-05T11:03:02.374Z,99598.13
2022-11-05T11:05:36.008Z,99594.69
2022-11-05T11:08:11.260Z,99597.78
2022-11-05T11:10:48.943Z,99596.66
2022-11-05T11:13:21.269Z,99603.78
2022-11-05T11:15:50.749Z,99597.25
2022-11-05T11:18:33.380Z,99600.84
2022-11-05T11:21:19.971Z,99607.38
2022-11-05T11:24:02.822Z,99611.91
2022-11-05T11:26:37.018Z,99605.50
2022-11-05T11:29:27.823Z,99607.56
2022-11-05T11:31:56.190Z,99597.69
2022-11-05T11:34:30.027Z,99595.78
2022-11-05T11:37:08.264Z,99591.31
2022-11-05T11:39:35.607Z,99573.28
2022-11-05T11:42:18.098Z,99572.88
2022-11-05T11:44:47.276Z,99573.09
2022-11-05T11:47:17.391Z,99567.16
2022-11-05T11:49:50.188Z,99574.53
2022-11-05T11:52:32.647Z,99577.19
2022-11-05T11:55:11.300Z,99572.69
2022-11-05T11:57:50.000Z,99575.66
2022-11-05T12:00:20.296Z,99580.03
2022-11-05T12:03:21.435Z,99582.72
2022-11-05T12:06:04.763Z,99580.63
2022-11-05T12:08:34.038Z,99585.97
2022-11-05T12:11:10.563Z,99588.38
2022-11-05T12:13:43.066Z,99586.41
2022-11-05T12:16:28.280Z,99577.78
2022-11-05T12:19:07.162Z,99574.94
2022-11-05T12:21:52.956Z,99571.41
2022-11-05T12:24:41.894Z,99569.28
2022-11-05T12:27:32.731Z,99569.41
2022-11-05T12:30:08.847Z,99561.09
2022-11-05T12:32:41.237Z,99560.53
2022-11-05T12:35:26.328Z,99554.59
2022-11-05T12:38:11.083Z,99551.22
2022-11-05T12:40:51.065Z,99551.22
2022-11-05T12:43:40.870Z,99551.34
2022-11-05T12:46:33.237Z,99538.22
2022-11-05T12:49:10.703Z,99548.69
2022-11-05T12:52:06.349Z,99545.28
2022-11-05T12:54:32.780Z,99539.03
2022-11-05T12:57:03.451Z,99536.19
2022-11-05T12:59:36.411Z,99533.03
2022-11-05T13:02:18.513Z,99524.81
2022-11-05T13:05:07.740Z,99521.13
2022-11-05T13:07:39.383Z,99517.31
2022-11-05T13:10:18.049Z,99521.88
2022-11-05T13:12:49.141Z,99524.00
2022-11-05T13:15:26.524Z,99531.38
2022-11-05T13:18:15.020Z,99521.38
2022-11-05T13:20:46.237Z,99528.28
2022-11-05T13:23:17.265Z,99527.16
2022-11-05T13:26:01.991Z,99519.41
2022-11-05T13:28:31.284Z,99520.13
2022-11-05T13:31:02.293Z,99534.69
2022-11-05T13:33:38.110Z,99537.66
2022-11-05T13:39:42.494Z,99532.28
2022-11-05T13:42:24.853Z,99538.22
2022-11-05T13:45:13.025Z,99524.22
2022-11-05T13:48:19.032Z,99537.66
2022-11-05T13:50:48.420Z,99530.59
2022-11-05T13:53:15.210Z,99538.63
2022-11-05T13:56:15.266Z,99548.69
2022-11-05T13:59:03.561Z,99545.44
2022-11-05T14:01:53.061Z,99537.81
2022-11-05T14:04:28.513Z,99525.78
2022-11-05T14:07:05.051Z,99516.19
2022-11-05T14:09:35.761Z,99516.72
2022-11-05T14:12:05.008Z,99505.56
2022-11-05T14:14:45.675Z,99507.53
2022-11-05T14:17:28.083Z,99503.16
2022-11-05T14:20:06.460Z,99496.91
2022-11-05T14:22:32.915Z,99475.59
2022-11-05T14:25:22.378Z,99479.66
2022-11-05T14:27:52.250Z,99483.88
2022-11-05T14:30:42.033Z,99483.84
2022-11-05T14:33:29.511Z,99490.88
2022-11-05T14:36:21.862Z,99481.97
2022-11-05T14:38:55.522Z,99486.50
2022-11-05T14:41:24.487Z,99482.94
2022-11-05T14:43:59.228Z,99487.16
2022-11-05T14:46:43.296Z,99485.72
2022-11-05T14:49:19.883Z,99498.38
2022-11-05T14:51:50.233Z,99493.41
2022-11-05T14:54:22.548Z,99496.75
2022-11-05T14:56:56.540Z,99499.72
2022-11-05T14:59:31.430Z,99483.75
2022-11-05T15:02:00.929Z,99493.22
2022-11-05T15:04:27.508Z,99495.72
2022-11-05T15:07:05.947Z,99502.78
2022-11-05T15:09:40.267Z,99498.38
2022-11-05T15:12:32.782Z,99496.50
2022-11-05T15:15:00.802Z,99486.59
2022-11-05T15:17:30.072Z,99481.50
2022-11-05T15:20:27.360Z,99490.78
2022-11-05T15:23:03.278Z,99485.69
2022-11-05T15:25:42.746Z,99490.47
2022-11-05T15:28:26.200Z,99491.81
2022-11-05T15:31:02.296Z,99488.50
2022-11-05T15:33:29.954Z,99500.31
2022-11-05T15:36:09.057Z,99498.63
2022-11-05T15:38:36.282Z,99512.59
2022-11-05T15:41:15.386Z,99512.06
2022-11-05T15:43:48.091Z,99519.63
2022-11-05T15:46:20.750Z,99527.72
2022-11-05T15:49:00.262Z,99526.38
2022-11-05T15:51:26.812Z,99538.22
2022-11-05T15:56:59.289Z,99539.22
2022-11-05T15:59:28.943Z,99543.84
2022-11-05T16:02:22.343Z,99546.50
2022-11-05T16:04:49.538Z,99539.81
2022-11-05T16:07:24.531Z,99541.28
2022-11-05T16:09:55.194Z,99541.53
2022-11-05T16:12:33.413Z,99550.16
2022-11-05T16:15:04.466Z,99529.75
2022-11-05T16:17:45.462Z,99535.00
2022-11-05T16:20:33.090Z,99539.03
2022-11-05T16:23:02.342Z,99535.38
2022-11-05T16:25:49.390Z,99537.91
2022-11-05T16:28:28.180Z,99527.63
2022-11-05T16:31:00.817Z,99525.66
2022-11-05T16:33:33.997Z,99527.13
2022-11-05T16:36:00.481Z,99541.22
2022-11-05T16:38:27.736Z,99534.41
2022-11-05T16:40:54.145Z,99543.91
2022-11-05T16:43:23.500Z,99552.75
2022-11-05T16:45:53.611Z,99551.19
2022-11-05T16:48:20.041Z,99548.78
2022-11-05T16:50:46.933Z,99552.66
2022-11-05T16:53:13.775Z,99554.13
2022-11-05T16:55:42.732Z,99549.59
2022-11-05T16:58:22.387Z,99559.97
2022-11-05T17:00:51.104Z,99550.59
2022-11-05T17:03:17.963Z,99548.03
2022-11-05T17:05:44.622Z,99548.28
2022-11-05T17:08:11.812Z,99549.75
2022-11-05T17:10:38.725Z,99552.53
2022-11-05T17:13:05.520Z,99562.28
2022-11-05T17:15:35.456Z,99558.25
2022-11-05T17:18:04.036Z,99556.31
2022-11-05T17:20:39.917Z,99549.03
2022-11-05T17:23:09.611Z,99546.09
2022-11-05T17:25:36.781Z,99564.09
2022-11-05T17:28:03.778Z,99569.44
2022-11-05T17:30:30.667Z,99569.44
2022-11-05T17:32:57.153Z,99569.66
2022-11-05T17:35:23.939Z,99566.41
2022-11-05T17:37:50.579Z,99570.28
2022-11-05T17:40:21.364Z,99567.97
2022-11-05T17:42:48.328Z,99569.78
2022-11-05T17:45:14.773Z,99564.44
2022-11-05T17:47:41.669Z,99563.94
2022-11-05T17:50:10.609Z,99561.78
2022-11-05T17:52:37.014Z,99564.06
2022-11-05T17:55:05.492Z,99566.50
2022-11-05T17:57:31.852Z,99571.72
2022-11-05T17:59:58.369Z,99569.41
2022-11-05T18:02:26.560Z,99565.41
2022-11-05T18:04:53.205Z,99566.38
2022-11-05T18:07:19.629Z,99569.16
2022-11-05T18:09:46.083Z,99567.84
2022-11-05T18:12:12.495Z,99561.63
2022-11-05T18:14:38.897Z,99564.06
2022-11-05T18:17:05.365Z,99565.66
2022-11-05T18:19:32.035Z,99560.03
2022-11-05T18:21:58.591Z,99558.97
2022-11-05T18:24:25.097Z,99568.44
2022-11-05T18:26:51.646Z,99569.31
2022-11-05T18:29:18.006Z,99552.91
2022-11-05T18:31:44.817Z,99564.31
2022-11-05T18:34:11.283Z,99567.09
2022-11-05T18:36:37.944Z,99567.44
2022-11-05T18:39:05.970Z,99567.56
2022-11-05T18:41:32.906Z,99560.31
2022-11-05T18:44:03.647Z,99553.50
2022-11-05T18:46:59.181Z,99561.03
2022-11-05T18:49:18.205Z,99556.66
2022-11-05T18:51:44.774Z,99561.25
2022-11-05T18:54:11.557Z,99560.03
2022-11-05T18:56:44.605Z,99565.75
2022-11-05T19:02:00.522Z,99567.22
2022-11-05T19:04:27.358Z,99567.31
2022-11-05T19:06:53.811Z,99559.94
2022-11-05T19:09:20.832Z,99570.94
2022-11-05T19:11:47.346Z,99567.44
2022-11-05T19:14:14.016Z,99564.38
2022-11-05T19:16:40.409Z,99566.22
2022-11-05T19:19:07.458Z,99560.03
2022-11-05T19:21:33.913Z,99558.81
2022-11-05T19:24:03.142Z,99562.22
2022-11-05T19:26:29.754Z,99556.53
2022-11-05T19:29:01.003Z,99563.78
2022-11-05T19:31:27.917Z,99561.72
2022-11-05T19:33:55.266Z,99557.97
2022-11-05T19:36:23.010Z,99562.09
2022-11-05T19:38:58.295Z,99558.72
2022-11-05T19:41:26.243Z,99556.03
2022-11-05T19:43:57.933Z,99555.34
2022-11-05T19:46:25.028Z,99547.19
2022-11-05T19:48:52.076Z,99552.19
2022-11-05T19:51:30.896Z,99559.44
2022-11-05T19:53:59.794Z,99556.66
2022-11-05T19:56:31.656Z,99557.38
2022-11-05T19:58:59.347Z,99556.66
2022-11-05T20:01:28.216Z,99547.44
2022-11-05T20:03:56.765Z,99554.59
2022-11-05T20:06:28.805Z,99556.56
2022-11-05T20:09:21.030Z,99558.25
2022-11-05T20:11:48.331Z,99558.13
2022-11-05T20:14:14.834Z,99559.56
2022-11-05T20:16:42.686Z,99566.03
2022-11-05T20:19:12.594Z,99565.03
2022-11-05T20:21:39.443Z,99566.38
2022-11-05T20:24:06.669Z,99562.38
2022-11-05T20:26:34.227Z,99562.59
2022-11-05T20:29:00.920Z,99566.03
2022-11-05T20:31:27.288Z,99564.06
2022-11-05T20:33:54.468Z,99566.13
2022-11-05T20:36:22.853Z,99566.97
2022-11-05T20:38:58.006Z,99558.25
2022-11-05T20:41:25.578Z,99580.34
2022-11-05T20:43:52.146Z,99580.44
2022-11-05T20:46:21.370Z,99582.66
2022-11-05T20:48:48.631Z,99589.56
2022-11-05T20:51:20.101Z,99585.78
2022-11-05T20:53:47.629Z,99587.50
2022-11-05T20:56:23.115Z,99585.56
2022-11-05T20:58:50.283Z,99581.56
2022-11-05T21:01:17.698Z,99571.81
2022-11-05T21:03:45.729Z,99574.75
2022-11-05T21:06:13.361Z,99591.03
2022-11-05T21:08:40.737Z,99591.59
2022-11-05T21:11:07.703Z,99597.94
2022-11-05T21:13:34.589Z,99593.31
2022-11-05T21:16:02.111Z,99606.78
2022-11-05T21:18:31.332Z,99598.25
2022-11-05T21:20:59.720Z,99602.88
2022-11-05T21:23:27.365Z,99603.00
2022-11-05T21:25:54.169Z,99599.22
2022-11-05T21:28:20.556Z,99588.75
2022-11-05T21:30:47.551Z,99584.41
2022-11-05T21:33:15.722Z,99590.94
2022-11-05T21:35:46.083Z,99590.31
2022-11-05T21:38:15.136Z,99590.59
2022-11-05T21:40:42.614Z,99589.59
2022-11-05T21:43:09.155Z,99596.66
2022-11-05T21:45:38.937Z,99609.84
2022-11-05T21:48:05.887Z,99606.66
2022-11-05T21:50:50.604Z,99595.31
2022-11-05T21:53:36.056Z,99599.78
2022-11-05T21:56:26.040Z,99596.25
2022-11-05T21:59:10.990Z,99592.59
2022-11-05T22:01:37.455Z,99589.06
2022-11-05T22:04:04.237Z,99583.00
2022-11-05T22:06:33.393Z,99576.81
2022-11-05T22:09:00.092Z,99578.97
2022-11-05T22:11:26.676Z,99581.78
2022-11-05T22:13:53.463Z,99580.41
2022-11-05T22:16:19.977Z,99577.06
2022-11-05T22:18:46.373Z,99577.28
2022-11-05T22:21:19.186Z,99578.97
2022-11-05T22:23:45.640Z,99571.72
2022-11-05T22:26:12.280Z,99578.50
2022-11-05T22:28:38.691Z,99564.56
2022-11-05T22:31:12.478Z,99566.28
2022-11-05T22:33:38.928Z,99563.34
2022-11-05T22:36:05.877Z,99558.50
2022-11-05T22:38:32.252Z,99545.16
2022-11-05T22:40:58.902Z,99551.28
2022-11-05T22:43:25.316Z,99547.03
2022-11-05T22:45:51.714Z,99538.41
2022-11-05T22:48:18.218Z,99536.41
2022-11-05T22:50:44.700Z,99530.53
2022-11-05T22:53:11.266Z,99523.06
2022-11-05T22:55:40.482Z,99520.03
2022-11-05T22:58:07.050Z,99520.66
2022-11-05T23:00:37.627Z,99511.53
2022-11-05T23:03:04.546Z,99517.94
2022-11-05T23:05:31.071Z,99514.09
2022-11-05T23:08:16.209Z,99505.34
2022-11-05T23:11:01.408Z,99521.94
2022-11-05T23:13:27.782Z,99511.75
2022-11-05T23:16:12.906Z,99505.81
2022-11-05T23:18:58.185Z,99503.16
2022-11-05T23:21:43.241Z,99499.75
2022-11-05T23:24:11.860Z,99494.16
2022-11-05T23:26:51.412Z,99495.13
2022-11-05T23:29:20.207Z,99499.50
2022-11-05T23:32:06.048Z,99495.66
2022-11-05T23:34:32.647Z,99499.59
2022-11-05T23:37:17.544Z,99484.75
2022-11-05T23:39:44.126Z,99486.28
2022-11-05T23:42:30.084Z,99493.66
2022-11-05T23:45:15.308Z,99489.31
2022-11-05T23:48:01.221Z,99485.09
2022-11-05T23:50:27.790Z,99487.38
2022-11-05T23:52:54.753Z,99484.25
2022-11-05T23:55:21.931Z,99478.03
2022-11-05T23:57:49.323Z,99477.44
